CPX428 Details

Departure: Washington Dulles International Airport (KIAD)
Arrival: Portland International Jetport (KPWM) at N/A
Route: JCOBY3 SWANN BROSS J42 RBV LGA BDR SCOGS3
Notes: LOBSTER KING


Current Weather Information
KIAD 251052Z 02004KT 10SM FEW030 BKN075 18/13 A3022 RMK AO2 SLP230 T01780133 $
KPWM 251051Z 01005KT 10SM CLR 13/11 A3037 RMK AO2 SLP283 T01330106